sensor_id;sensor_type;location;lat;lon;timestamp;P1;durP1;ratioP1;P2;durP2;ratioP2
20671;SDS011;10495;50.922;4.760;2023-04-06T00:01:37;18.27;;;11.30;;
20671;SDS011;10495;50.922;4.760;2023-04-06T00:04:03;20.37;;;12.77;;
20671;SDS011;10495;50.922;4.760;2023-04-06T00:06:28;22.70;;;13.17;;
20671;SDS011;10495;50.922;4.760;2023-04-06T00:08:55;21.23;;;13.17;;
20671;SDS011;10495;50.922;4.760;2023-04-06T00:11:21;19.33;;;11.17;;
20671;SDS011;10495;50.922;4.760;2023-04-06T00:13:47;16.60;;;11.00;;
20671;SDS011;10495;50.922;4.760;2023-04-06T00:16:13;20.57;;;12.50;;
20671;SDS011;10495;50.922;4.760;2023-04-06T00:18:39;20.20;;;12.03;;
20671;SDS011;10495;50.922;4.760;2023-04-06T00:21:05;21.13;;;12.23;;
20671;SDS011;10495;50.922;4.760;2023-04-06T00:23:30;23.53;;;13.10;;
20671;SDS011;10495;50.922;4.760;2023-04-06T00:25:56;21.50;;;12.60;;
20671;SDS011;10495;50.922;4.760;2023-04-06T00:28:22;20.03;;;12.33;;
20671;SDS011;10495;50.922;4.760;2023-04-06T00:30:51;24.17;;;12.50;;
20671;SDS011;10495;50.922;4.760;2023-04-06T00:33:18;19.13;;;12.57;;
20671;SDS011;10495;50.922;4.760;2023-04-06T00:35:44;15.43;;;10.97;;
20671;SDS011;10495;50.922;4.760;2023-04-06T00:38:10;20.20;;;11.27;;
20671;SDS011;10495;50.922;4.760;2023-04-06T00:40:36;20.00;;;11.83;;
20671;SDS011;10495;50.922;4.760;2023-04-06T00:43:02;20.00;;;12.10;;
20671;SDS011;10495;50.922;4.760;2023-04-06T00:45:28;18.77;;;12.07;;
20671;SDS011;10495;50.922;4.760;2023-04-06T00:47:53;23.57;;;13.07;;
20671;SDS011;10495;50.922;4.760;2023-04-06T00:50:19;18.37;;;11.57;;
20671;SDS011;10495;50.922;4.760;2023-04-06T00:52:44;21.17;;;13.03;;
20671;SDS011;10495;50.922;4.760;2023-04-06T00:55:10;20.70;;;12.13;;
20671;SDS011;10495;50.922;4.760;2023-04-06T00:57:36;20.77;;;12.03;;
20671;SDS011;10495;50.922;4.760;2023-04-06T01:00:02;21.50;;;12.87;;
20671;SDS011;10495;50.922;4.760;2023-04-06T01:02:28;19.73;;;12.37;;
20671;SDS011;10495;50.922;4.760;2023-04-06T01:04:54;21.47;;;12.43;;
20671;SDS011;10495;50.922;4.760;2023-04-06T01:07:20;18.73;;;11.93;;
20671;SDS011;10495;50.922;4.760;2023-04-06T01:09:45;20.57;;;12.10;;
20671;SDS011;10495;50.922;4.760;2023-04-06T01:12:11;17.77;;;11.20;;
20671;SDS011;10495;50.922;4.760;2023-04-06T01:14:36;19.10;;;12.27;;
20671;SDS011;10495;50.922;4.760;2023-04-06T01:17:02;21.87;;;12.63;;
20671;SDS011;10495;50.922;4.760;2023-04-06T01:19:28;18.87;;;11.93;;
20671;SDS011;10495;50.922;4.760;2023-04-06T01:21:53;19.63;;;11.80;;
20671;SDS011;10495;50.922;4.760;2023-04-06T01:24:20;21.70;;;12.33;;
20671;SDS011;10495;50.922;4.760;2023-04-06T01:26:46;17.57;;;10.67;;
20671;SDS011;10495;50.922;4.760;2023-04-06T01:29:11;19.77;;;12.00;;
20671;SDS011;10495;50.922;4.760;2023-04-06T01:31:38;18.53;;;11.20;;
20671;SDS011;10495;50.922;4.760;2023-04-06T01:34:04;19.00;;;11.43;;
20671;SDS011;10495;50.922;4.760;2023-04-06T01:36:30;23.40;;;13.00;;
20671;SDS011;10495;50.922;4.760;2023-04-06T01:38:56;22.50;;;11.70;;
20671;SDS011;10495;50.922;4.760;2023-04-06T01:41:21;22.73;;;11.97;;
20671;SDS011;10495;50.922;4.760;2023-04-06T01:43:47;19.87;;;11.63;;
20671;SDS011;10495;50.922;4.760;2023-04-06T01:46:14;19.47;;;12.00;;
20671;SDS011;10495;50.922;4.760;2023-04-06T01:48:40;18.63;;;11.60;;
20671;SDS011;10495;50.922;4.760;2023-04-06T01:51:06;19.30;;;10.57;;
20671;SDS011;10495;50.922;4.760;2023-04-06T01:53:33;17.40;;;11.73;;
20671;SDS011;10495;50.922;4.760;2023-04-06T01:55:58;21.87;;;12.67;;
20671;SDS011;10495;50.922;4.760;2023-04-06T01:58:24;18.27;;;11.40;;
20671;SDS011;10495;50.922;4.760;2023-04-06T02:00:50;23.97;;;11.97;;
20671;SDS011;10495;50.922;4.760;2023-04-06T02:03:16;17.30;;;10.80;;
20671;SDS011;10495;50.922;4.760;2023-04-06T02:05:41;18.33;;;11.73;;
20671;SDS011;10495;50.922;4.760;2023-04-06T02:08:07;18.93;;;11.50;;
20671;SDS011;10495;50.922;4.760;2023-04-06T02:10:33;21.03;;;11.77;;
20671;SDS011;10495;50.922;4.760;2023-04-06T02:12:59;22.90;;;11.80;;
20671;SDS011;10495;50.922;4.760;2023-04-06T02:15:25;18.90;;;11.87;;
20671;SDS011;10495;50.922;4.760;2023-04-06T02:17:52;19.47;;;12.03;;
20671;SDS011;10495;50.922;4.760;2023-04-06T02:20:18;16.27;;;11.00;;
20671;SDS011;10495;50.922;4.760;2023-04-06T02:22:44;20.13;;;11.77;;
20671;SDS011;10495;50.922;4.760;2023-04-06T02:25:09;16.43;;;10.60;;
20671;SDS011;10495;50.922;4.760;2023-04-06T02:27:35;18.20;;;10.93;;
20671;SDS011;10495;50.922;4.760;2023-04-06T02:30:04;18.17;;;11.53;;
20671;SDS011;10495;50.922;4.760;2023-04-06T02:32:30;20.03;;;11.80;;
20671;SDS011;10495;50.922;4.760;2023-04-06T02:34:56;18.23;;;11.30;;
20671;SDS011;10495;50.922;4.760;2023-04-06T02:37:22;19.53;;;12.20;;
20671;SDS011;10495;50.922;4.760;2023-04-06T02:39:49;20.37;;;12.07;;
20671;SDS011;10495;50.922;4.760;2023-04-06T02:42:15;18.17;;;10.97;;
20671;SDS011;10495;50.922;4.760;2023-04-06T02:44:41;17.33;;;11.10;;
20671;SDS011;10495;50.922;4.760;2023-04-06T02:47:07;16.33;;;10.80;;
20671;SDS011;10495;50.922;4.760;2023-04-06T02:49:32;16.13;;;9.93;;
20671;SDS011;10495;50.922;4.760;2023-04-06T02:51:58;21.17;;;11.47;;
20671;SDS011;10495;50.922;4.760;2023-04-06T02:54:24;17.07;;;10.27;;
20671;SDS011;10495;50.922;4.760;2023-04-06T02:56:50;19.17;;;10.43;;
20671;SDS011;10495;50.922;4.760;2023-04-06T02:59:15;20.23;;;11.33;;
20671;SDS011;10495;50.922;4.760;2023-04-06T03:01:41;19.13;;;10.80;;
20671;SDS011;10495;50.922;4.760;2023-04-06T03:04:06;19.47;;;11.13;;
20671;SDS011;10495;50.922;4.760;2023-04-06T03:06:32;21.00;;;10.80;;
20671;SDS011;10495;50.922;4.760;2023-04-06T03:08:58;16.37;;;10.13;;
20671;SDS011;10495;50.922;4.760;2023-04-06T03:11:23;19.20;;;11.00;;
20671;SDS011;10495;50.922;4.760;2023-04-06T03:13:50;19.17;;;11.17;;
20671;SDS011;10495;50.922;4.760;2023-04-06T03:16:16;18.47;;;11.13;;
20671;SDS011;10495;50.922;4.760;2023-04-06T03:18:41;16.10;;;9.83;;
20671;SDS011;10495;50.922;4.760;2023-04-06T03:21:09;15.83;;;9.80;;
20671;SDS011;10495;50.922;4.760;2023-04-06T03:23:35;18.37;;;11.10;;
20671;SDS011;10495;50.922;4.760;2023-04-06T03:26:01;19.10;;;11.20;;
20671;SDS011;10495;50.922;4.760;2023-04-06T03:28:27;18.50;;;10.37;;
20671;SDS011;10495;50.922;4.760;2023-04-06T03:30:53;23.00;;;11.10;;
20671;SDS011;10495;50.922;4.760;2023-04-06T03:33:18;19.73;;;11.73;;
20671;SDS011;10495;50.922;4.760;2023-04-06T03:35:44;18.93;;;9.97;;
20671;SDS011;10495;50.922;4.760;2023-04-06T03:38:09;18.20;;;11.50;;
20671;SDS011;10495;50.922;4.760;2023-04-06T03:40:35;20.07;;;11.47;;
20671;SDS011;10495;50.922;4.760;2023-04-06T03:43:01;16.73;;;10.03;;
20671;SDS011;10495;50.922;4.760;2023-04-06T03:45:26;18.83;;;10.87;;
20671;SDS011;10495;50.922;4.760;2023-04-06T03:47:52;21.20;;;11.33;;
20671;SDS011;10495;50.922;4.760;2023-04-06T03:50:18;15.97;;;10.40;;
20671;SDS011;10495;50.922;4.760;2023-04-06T03:52:43;19.30;;;11.37;;
20671;SDS011;10495;50.922;4.760;2023-04-06T03:55:09;17.03;;;10.23;;
20671;SDS011;10495;50.922;4.760;2023-04-06T03:57:35;22.33;;;11.60;;
20671;SDS011;10495;50.922;4.760;2023-04-06T04:00:00;17.27;;;10.23;;
20671;SDS011;10495;50.922;4.760;2023-04-06T04:02:27;16.47;;;9.97;;
20671;SDS011;10495;50.922;4.760;2023-04-06T04:04:52;16.13;;;10.73;;
20671;SDS011;10495;50.922;4.760;2023-04-06T04:07:18;22.90;;;11.67;;
20671;SDS011;10495;50.922;4.760;2023-04-06T04:09:43;17.57;;;10.13;;
20671;SDS011;10495;50.922;4.760;2023-04-06T04:12:09;17.13;;;10.47;;
20671;SDS011;10495;50.922;4.760;2023-04-06T04:14:35;16.17;;;10.17;;
20671;SDS011;10495;50.922;4.760;2023-04-06T04:17:00;16.70;;;10.00;;
20671;SDS011;10495;50.922;4.760;2023-04-06T04:19:26;17.03;;;10.67;;
20671;SDS011;10495;50.922;4.760;2023-04-06T04:21:51;17.33;;;10.57;;
20671;SDS011;10495;50.922;4.760;2023-04-06T04:24:17;22.07;;;11.23;;
20671;SDS011;10495;50.922;4.760;2023-04-06T04:26:42;16.60;;;10.03;;
20671;SDS011;10495;50.922;4.760;2023-04-06T04:29:09;18.43;;;9.80;;
20671;SDS011;10495;50.922;4.760;2023-04-06T04:31:35;18.60;;;11.40;;
20671;SDS011;10495;50.922;4.760;2023-04-06T04:34:00;17.77;;;11.03;;
20671;SDS011;10495;50.922;4.760;2023-04-06T04:36:26;19.67;;;11.17;;
20671;SDS011;10495;50.922;4.760;2023-04-06T04:38:52;18.43;;;10.73;;
20671;SDS011;10495;50.922;4.760;2023-04-06T04:41:18;17.90;;;10.20;;
20671;SDS011;10495;50.922;4.760;2023-04-06T04:43:43;18.67;;;10.50;;
20671;SDS011;10495;50.922;4.760;2023-04-06T04:46:09;17.20;;;10.33;;
20671;SDS011;10495;50.922;4.760;2023-04-06T04:48:35;16.33;;;10.03;;
20671;SDS011;10495;50.922;4.760;2023-04-06T04:51:01;18.00;;;10.30;;
20671;SDS011;10495;50.922;4.760;2023-04-06T04:53:26;19.47;;;11.90;;
20671;SDS011;10495;50.922;4.760;2023-04-06T04:55:52;15.73;;;10.07;;
20671;SDS011;10495;50.922;4.760;2023-04-06T04:58:17;23.90;;;10.83;;
20671;SDS011;10495;50.922;4.760;2023-04-06T05:00:44;16.13;;;9.77;;
20671;SDS011;10495;50.922;4.760;2023-04-06T05:03:14;20.40;;;10.00;;
20671;SDS011;10495;50.922;4.760;2023-04-06T05:05:47;18.90;;;10.30;;
20671;SDS011;10495;50.922;4.760;2023-04-06T05:08:13;19.53;;;11.93;;
20671;SDS011;10495;50.922;4.760;2023-04-06T05:10:39;18.07;;;10.30;;
20671;SDS011;10495;50.922;4.760;2023-04-06T05:13:05;19.77;;;11.77;;
20671;SDS011;10495;50.922;4.760;2023-04-06T05:15:30;20.80;;;10.93;;
20671;SDS011;10495;50.922;4.760;2023-04-06T05:17:56;17.80;;;10.10;;
20671;SDS011;10495;50.922;4.760;2023-04-06T05:20:22;19.13;;;11.53;;
20671;SDS011;10495;50.922;4.760;2023-04-06T05:22:48;18.93;;;10.70;;
20671;SDS011;10495;50.922;4.760;2023-04-06T05:25:14;19.17;;;10.33;;
20671;SDS011;10495;50.922;4.760;2023-04-06T05:27:39;21.03;;;11.43;;
20671;SDS011;10495;50.922;4.760;2023-04-06T05:30:06;21.27;;;10.80;;
20671;SDS011;10495;50.922;4.760;2023-04-06T05:32:32;16.87;;;10.37;;
20671;SDS011;10495;50.922;4.760;2023-04-06T05:34:58;16.50;;;9.97;;
20671;SDS011;10495;50.922;4.760;2023-04-06T05:37:24;19.03;;;11.03;;
20671;SDS011;10495;50.922;4.760;2023-04-06T05:39:49;18.90;;;10.63;;
20671;SDS011;10495;50.922;4.760;2023-04-06T05:42:15;18.80;;;10.83;;
20671;SDS011;10495;50.922;4.760;2023-04-06T05:44:41;18.73;;;10.77;;
20671;SDS011;10495;50.922;4.760;2023-04-06T05:47:07;17.73;;;10.57;;
20671;SDS011;10495;50.922;4.760;2023-04-06T05:49:33;18.03;;;10.67;;
20671;SDS011;10495;50.922;4.760;2023-04-06T05:51:59;20.53;;;11.67;;
20671;SDS011;10495;50.922;4.760;2023-04-06T05:54:25;19.00;;;11.73;;
20671;SDS011;10495;50.922;4.760;2023-04-06T05:56:51;17.67;;;11.03;;
20671;SDS011;10495;50.922;4.760;2023-04-06T05:59:16;19.03;;;10.87;;
20671;SDS011;10495;50.922;4.760;2023-04-06T06:01:42;18.07;;;11.33;;
20671;SDS011;10495;50.922;4.760;2023-04-06T06:04:07;18.87;;;10.27;;
20671;SDS011;10495;50.922;4.760;2023-04-06T06:06:33;19.27;;;11.67;;
20671;SDS011;10495;50.922;4.760;2023-04-06T06:08:59;21.23;;;11.17;;
20671;SDS011;10495;50.922;4.760;2023-04-06T06:11:25;20.70;;;11.17;;
20671;SDS011;10495;50.922;4.760;2023-04-06T06:13:51;17.30;;;11.33;;
20671;SDS011;10495;50.922;4.760;2023-04-06T06:16:18;20.00;;;11.57;;
20671;SDS011;10495;50.922;4.760;2023-04-06T06:18:44;20.90;;;11.40;;
20671;SDS011;10495;50.922;4.760;2023-04-06T06:21:09;20.93;;;10.70;;
20671;SDS011;10495;50.922;4.760;2023-04-06T06:23:37;19.53;;;11.30;;
20671;SDS011;10495;50.922;4.760;2023-04-06T06:26:03;17.57;;;11.97;;
20671;SDS011;10495;50.922;4.760;2023-04-06T06:28:29;17.30;;;10.13;;
20671;SDS011;10495;50.922;4.760;2023-04-06T06:30:55;19.70;;;11.10;;
20671;SDS011;10495;50.922;4.760;2023-04-06T06:33:20;16.77;;;10.27;;
20671;SDS011;10495;50.922;4.760;2023-04-06T06:35:46;19.50;;;11.47;;
20671;SDS011;10495;50.922;4.760;2023-04-06T06:38:12;23.13;;;11.47;;
20671;SDS011;10495;50.922;4.760;2023-04-06T06:40:37;20.40;;;10.57;;
20671;SDS011;10495;50.922;4.760;2023-04-06T06:43:03;18.40;;;9.90;;
20671;SDS011;10495;50.922;4.760;2023-04-06T06:45:28;18.43;;;11.70;;
20671;SDS011;10495;50.922;4.760;2023-04-06T06:47:54;15.07;;;10.40;;
20671;SDS011;10495;50.922;4.760;2023-04-06T06:50:20;18.47;;;11.57;;
20671;SDS011;10495;50.922;4.760;2023-04-06T06:52:45;19.03;;;10.93;;
20671;SDS011;10495;50.922;4.760;2023-04-06T06:55:11;17.47;;;11.00;;
20671;SDS011;10495;50.922;4.760;2023-04-06T06:57:37;19.27;;;11.27;;
20671;SDS011;10495;50.922;4.760;2023-04-06T07:00:03;18.47;;;12.33;;
20671;SDS011;10495;50.922;4.760;2023-04-06T07:02:30;18.97;;;11.63;;
20671;SDS011;10495;50.922;4.760;2023-04-06T07:04:56;18.27;;;11.77;;
20671;SDS011;10495;50.922;4.760;2023-04-06T07:07:21;19.47;;;11.27;;
20671;SDS011;10495;50.922;4.760;2023-04-06T07:09:47;19.00;;;11.27;;
20671;SDS011;10495;50.922;4.760;2023-04-06T07:12:13;21.13;;;12.37;;
20671;SDS011;10495;50.922;4.760;2023-04-06T07:14:38;18.53;;;11.87;;
20671;SDS011;10495;50.922;4.760;2023-04-06T07:17:04;20.60;;;12.23;;
20671;SDS011;10495;50.922;4.760;2023-04-06T07:19:30;18.67;;;11.03;;
20671;SDS011;10495;50.922;4.760;2023-04-06T07:21:55;20.30;;;11.37;;
20671;SDS011;10495;50.922;4.760;2023-04-06T07:24:21;17.73;;;11.47;;
20671;SDS011;10495;50.922;4.760;2023-04-06T07:26:47;19.83;;;12.00;;
20671;SDS011;10495;50.922;4.760;2023-04-06T07:29:12;17.20;;;10.93;;
20671;SDS011;10495;50.922;4.760;2023-04-06T07:31:38;20.80;;;11.70;;
20671;SDS011;10495;50.922;4.760;2023-04-06T07:34:04;22.27;;;11.83;;
20671;SDS011;10495;50.922;4.760;2023-04-06T07:36:29;21.03;;;12.50;;
20671;SDS011;10495;50.922;4.760;2023-04-06T07:38:55;18.50;;;11.60;;
20671;SDS011;10495;50.922;4.760;2023-04-06T07:41:21;17.00;;;11.10;;
20671;SDS011;10495;50.922;4.760;2023-04-06T07:43:46;17.17;;;11.00;;
20671;SDS011;10495;50.922;4.760;2023-04-06T07:46:13;18.10;;;11.03;;
20671;SDS011;10495;50.922;4.760;2023-04-06T07:48:38;21.70;;;11.17;;
20671;SDS011;10495;50.922;4.760;2023-04-06T07:51:04;18.90;;;12.13;;
20671;SDS011;10495;50.922;4.760;2023-04-06T07:53:31;20.77;;;11.47;;
20671;SDS011;10495;50.922;4.760;2023-04-06T07:56:00;18.97;;;11.17;;
20671;SDS011;10495;50.922;4.760;2023-04-06T07:58:25;16.87;;;10.93;;
20671;SDS011;10495;50.922;4.760;2023-04-06T08:00:51;16.80;;;10.73;;
20671;SDS011;10495;50.922;4.760;2023-04-06T08:03:17;23.37;;;12.00;;
20671;SDS011;10495;50.922;4.760;2023-04-06T08:05:42;14.87;;;10.33;;
20671;SDS011;10495;50.922;4.760;2023-04-06T08:08:08;17.93;;;11.40;;
20671;SDS011;10495;50.922;4.760;2023-04-06T08:10:34;18.17;;;11.60;;
20671;SDS011;10495;50.922;4.760;2023-04-06T08:13:00;15.43;;;10.80;;
20671;SDS011;10495;50.922;4.760;2023-04-06T08:15:26;17.27;;;12.10;;
20671;SDS011;10495;50.922;4.760;2023-04-06T08:17:51;17.17;;;11.17;;
20671;SDS011;10495;50.922;4.760;2023-04-06T08:20:17;17.20;;;10.63;;
20671;SDS011;10495;50.922;4.760;2023-04-06T08:22:42;14.30;;;9.73;;
20671;SDS011;10495;50.922;4.760;2023-04-06T08:25:08;15.30;;;10.37;;
20671;SDS011;10495;50.922;4.760;2023-04-06T08:27:34;22.03;;;11.10;;
20671;SDS011;10495;50.922;4.760;2023-04-06T08:30:00;12.73;;;8.83;;
20671;SDS011;10495;50.922;4.760;2023-04-06T08:32:26;15.37;;;9.53;;
20671;SDS011;10495;50.922;4.760;2023-04-06T08:34:55;14.80;;;8.87;;
20671;SDS011;10495;50.922;4.760;2023-04-06T08:37:21;14.03;;;9.17;;
20671;SDS011;10495;50.922;4.760;2023-04-06T08:39:47;15.27;;;9.33;;
20671;SDS011;10495;50.922;4.760;2023-04-06T08:42:16;14.20;;;9.23;;
20671;SDS011;10495;50.922;4.760;2023-04-06T08:44:45;13.33;;;8.63;;
20671;SDS011;10495;50.922;4.760;2023-04-06T08:47:12;12.50;;;8.13;;
20671;SDS011;10495;50.922;4.760;2023-04-06T08:49:38;16.07;;;8.33;;
20671;SDS011;10495;50.922;4.760;2023-04-06T08:52:05;11.97;;;8.43;;
20671;SDS011;10495;50.922;4.760;2023-04-06T08:54:33;14.20;;;9.00;;
20671;SDS011;10495;50.922;4.760;2023-04-06T08:56:59;12.63;;;8.60;;
20671;SDS011;10495;50.922;4.760;2023-04-06T08:59:26;12.00;;;7.83;;
20671;SDS011;10495;50.922;4.760;2023-04-06T09:01:52;11.37;;;7.90;;
20671;SDS011;10495;50.922;4.760;2023-04-06T09:04:19;13.73;;;8.30;;
20671;SDS011;10495;50.922;4.760;2023-04-06T09:06:45;14.57;;;8.60;;
20671;SDS011;10495;50.922;4.760;2023-04-06T09:09:10;11.57;;;7.93;;
20671;SDS011;10495;50.922;4.760;2023-04-06T09:11:47;11.63;;;8.47;;
20671;SDS011;10495;50.922;4.760;2023-04-06T09:14:14;12.37;;;8.70;;
20671;SDS011;10495;50.922;4.760;2023-04-06T09:16:44;12.70;;;8.50;;
20671;SDS011;10495;50.922;4.760;2023-04-06T09:19:11;14.07;;;8.10;;
20671;SDS011;10495;50.922;4.760;2023-04-06T09:21:37;12.80;;;8.00;;
20671;SDS011;10495;50.922;4.760;2023-04-06T09:24:05;14.47;;;8.90;;
20671;SDS011;10495;50.922;4.760;2023-04-06T09:26:32;10.67;;;7.73;;
20671;SDS011;10495;50.922;4.760;2023-04-06T09:28:58;14.07;;;8.67;;
20671;SDS011;10495;50.922;4.760;2023-04-06T09:31:29;13.30;;;8.97;;
20671;SDS011;10495;50.922;4.760;2023-04-06T09:33:58;13.50;;;8.47;;
20671;SDS011;10495;50.922;4.760;2023-04-06T09:36:37;14.37;;;9.07;;
20671;SDS011;10495;50.922;4.760;2023-04-06T09:39:06;14.90;;;9.83;;
20671;SDS011;10495;50.922;4.760;2023-04-06T09:41:33;15.33;;;9.53;;
20671;SDS011;10495;50.922;4.760;2023-04-06T09:44:09;16.20;;;9.43;;
20671;SDS011;10495;50.922;4.760;2023-04-06T09:46:37;14.10;;;9.73;;
20671;SDS011;10495;50.922;4.760;2023-04-06T09:49:04;19.40;;;10.80;;
20671;SDS011;10495;50.922;4.760;2023-04-06T09:51:35;17.53;;;11.03;;
20671;SDS011;10495;50.922;4.760;2023-04-06T09:54:05;15.07;;;9.67;;
20671;SDS011;10495;50.922;4.760;2023-04-06T09:56:56;16.80;;;10.53;;
20671;SDS011;10495;50.922;4.760;2023-04-06T10:02:08;14.20;;;9.93;;
20671;SDS011;10495;50.922;4.760;2023-04-06T10:07:34;16.17;;;11.23;;
20671;SDS011;10495;50.922;4.760;2023-04-06T10:10:02;16.93;;;11.33;;
20671;SDS011;10495;50.922;4.760;2023-04-06T10:12:28;17.80;;;11.23;;
20671;SDS011;10495;50.922;4.760;2023-04-06T10:14:54;14.47;;;10.23;;
20671;SDS011;10495;50.922;4.760;2023-04-06T10:17:21;17.43;;;10.57;;
20671;SDS011;10495;50.922;4.760;2023-04-06T10:19:53;14.10;;;9.50;;
20671;SDS011;10495;50.922;4.760;2023-04-06T10:22:29;14.87;;;9.53;;
20671;SDS011;10495;50.922;4.760;2023-04-06T10:25:01;15.97;;;9.40;;
20671;SDS011;10495;50.922;4.760;2023-04-06T10:27:27;14.33;;;9.30;;
20671;SDS011;10495;50.922;4.760;2023-04-06T10:29:54;14.23;;;9.20;;
20671;SDS011;10495;50.922;4.760;2023-04-06T10:32:32;13.23;;;8.83;;
20671;SDS011;10495;50.922;4.760;2023-04-06T10:35:10;12.73;;;8.63;;
20671;SDS011;10495;50.922;4.760;2023-04-06T10:37:48;14.17;;;9.50;;
20671;SDS011;10495;50.922;4.760;2023-04-06T10:40:19;12.70;;;9.00;;
20671;SDS011;10495;50.922;4.760;2023-04-06T10:42:44;12.50;;;8.13;;
20671;SDS011;10495;50.922;4.760;2023-04-06T10:45:20;13.17;;;9.13;;
20671;SDS011;10495;50.922;4.760;2023-04-06T10:47:52;10.60;;;7.97;;
20671;SDS011;10495;50.922;4.760;2023-04-06T10:50:18;13.90;;;9.83;;
20671;SDS011;10495;50.922;4.760;2023-04-06T10:52:45;14.40;;;9.20;;
20671;SDS011;10495;50.922;4.760;2023-04-06T10:55:13;13.47;;;9.23;;
20671;SDS011;10495;50.922;4.760;2023-04-06T10:57:40;15.77;;;9.37;;
20671;SDS011;10495;50.922;4.760;2023-04-06T11:00:07;15.00;;;8.97;;
20671;SDS011;10495;50.922;4.760;2023-04-06T11:02:36;14.20;;;9.60;;
20671;SDS011;10495;50.922;4.760;2023-04-06T11:05:02;14.20;;;9.53;;
20671;SDS011;10495;50.922;4.760;2023-04-06T11:07:28;13.40;;;9.47;;
20671;SDS011;10495;50.922;4.760;2023-04-06T11:09:55;14.50;;;9.43;;
20671;SDS011;10495;50.922;4.760;2023-04-06T11:14:57;10.97;;;8.60;;
20671;SDS011;10495;50.922;4.760;2023-04-06T11:17:35;15.50;;;10.00;;
20671;SDS011;10495;50.922;4.760;2023-04-06T11:20:02;15.67;;;9.70;;
20671;SDS011;10495;50.922;4.760;2023-04-06T11:22:29;13.67;;;8.87;;
20671;SDS011;10495;50.922;4.760;2023-04-06T11:25:08;18.33;;;10.00;;
20671;SDS011;10495;50.922;4.760;2023-04-06T11:27:34;11.50;;;8.73;;
20671;SDS011;10495;50.922;4.760;2023-04-06T11:30:00;13.17;;;8.87;;
20671;SDS011;10495;50.922;4.760;2023-04-06T11:32:27;16.17;;;10.00;;
20671;SDS011;10495;50.922;4.760;2023-04-06T11:34:53;13.47;;;9.00;;
20671;SDS011;10495;50.922;4.760;2023-04-06T11:37:19;14.57;;;9.43;;
20671;SDS011;10495;50.922;4.760;2023-04-06T11:39:51;14.07;;;9.33;;
20671;SDS011;10495;50.922;4.760;2023-04-06T11:42:27;12.10;;;9.17;;
20671;SDS011;10495;50.922;4.760;2023-04-06T11:44:55;13.13;;;8.60;;
20671;SDS011;10495;50.922;4.760;2023-04-06T11:47:34;12.17;;;8.47;;
20671;SDS011;10495;50.922;4.760;2023-04-06T11:50:09;11.67;;;8.43;;
20671;SDS011;10495;50.922;4.760;2023-04-06T11:52:36;13.33;;;9.30;;
20671;SDS011;10495;50.922;4.760;2023-04-06T11:55:13;12.20;;;8.23;;
20671;SDS011;10495;50.922;4.760;2023-04-06T11:57:41;12.53;;;7.83;;
20671;SDS011;10495;50.922;4.760;2023-04-06T12:00:10;11.87;;;9.00;;
20671;SDS011;10495;50.922;4.760;2023-04-06T12:02:37;12.10;;;7.83;;
20671;SDS011;10495;50.922;4.760;2023-04-06T12:05:04;9.57;;;7.77;;
20671;SDS011;10495;50.922;4.760;2023-04-06T12:07:31;11.07;;;7.67;;
20671;SDS011;10495;50.922;4.760;2023-04-06T12:09:58;8.77;;;7.17;;
20671;SDS011;10495;50.922;4.760;2023-04-06T12:12:24;11.67;;;7.87;;
20671;SDS011;10495;50.922;4.760;2023-04-06T12:14:50;13.97;;;8.10;;
20671;SDS011;10495;50.922;4.760;2023-04-06T12:17:16;11.40;;;8.17;;
20671;SDS011;10495;50.922;4.760;2023-04-06T12:19:43;12.93;;;8.63;;
20671;SDS011;10495;50.922;4.760;2023-04-06T12:22:08;11.73;;;8.20;;
20671;SDS011;10495;50.922;4.760;2023-04-06T12:24:34;11.63;;;8.10;;
20671;SDS011;10495;50.922;4.760;2023-04-06T12:27:00;12.53;;;8.00;;
20671;SDS011;10495;50.922;4.760;2023-04-06T12:29:26;12.70;;;7.60;;
20671;SDS011;10495;50.922;4.760;2023-04-06T12:31:52;10.17;;;8.00;;
20671;SDS011;10495;50.922;4.760;2023-04-06T12:34:18;12.93;;;8.03;;
20671;SDS011;10495;50.922;4.760;2023-04-06T12:36:43;11.70;;;8.37;;
20671;SDS011;10495;50.922;4.760;2023-04-06T12:39:09;11.50;;;8.37;;
20671;SDS011;10495;50.922;4.760;2023-04-06T12:41:36;11.97;;;8.60;;
20671;SDS011;10495;50.922;4.760;2023-04-06T12:44:02;13.70;;;9.00;;
20671;SDS011;10495;50.922;4.760;2023-04-06T12:46:27;10.80;;;8.17;;
20671;SDS011;10495;50.922;4.760;2023-04-06T12:48:57;11.77;;;7.93;;
20671;SDS011;10495;50.922;4.760;2023-04-06T12:51:24;12.87;;;8.37;;
20671;SDS011;10495;50.922;4.760;2023-04-06T12:53:53;11.50;;;8.50;;
20671;SDS011;10495;50.922;4.760;2023-04-06T12:56:18;11.40;;;7.80;;
20671;SDS011;10495;50.922;4.760;2023-04-06T12:58:46;10.27;;;7.60;;
20671;SDS011;10495;50.922;4.760;2023-04-06T13:01:12;12.90;;;8.47;;
20671;SDS011;10495;50.922;4.760;2023-04-06T13:03:38;11.43;;;8.30;;
20671;SDS011;10495;50.922;4.760;2023-04-06T13:06:05;11.87;;;7.50;;
20671;SDS011;10495;50.922;4.760;2023-04-06T13:08:30;12.90;;;8.47;;
20671;SDS011;10495;50.922;4.760;2023-04-06T13:10:56;13.20;;;8.90;;
20671;SDS011;10495;50.922;4.760;2023-04-06T13:13:23;9.83;;;7.67;;
20671;SDS011;10495;50.922;4.760;2023-04-06T13:15:50;12.47;;;8.23;;
20671;SDS011;10495;50.922;4.760;2023-04-06T13:18:16;14.07;;;9.40;;
20671;SDS011;10495;50.922;4.760;2023-04-06T13:20:42;12.30;;;8.87;;
20671;SDS011;10495;50.922;4.760;2023-04-06T13:23:08;11.93;;;8.80;;
20671;SDS011;10495;50.922;4.760;2023-04-06T13:25:33;11.47;;;8.67;;
20671;SDS011;10495;50.922;4.760;2023-04-06T13:27:59;15.40;;;9.40;;
20671;SDS011;10495;50.922;4.760;2023-04-06T13:30:25;11.77;;;8.63;;
20671;SDS011;10495;50.922;4.760;2023-04-06T13:32:51;14.20;;;8.70;;
20671;SDS011;10495;50.922;4.760;2023-04-06T13:35:16;14.67;;;9.37;;
20671;SDS011;10495;50.922;4.760;2023-04-06T13:37:42;11.50;;;8.47;;
20671;SDS011;10495;50.922;4.760;2023-04-06T13:40:08;10.80;;;8.57;;
20671;SDS011;10495;50.922;4.760;2023-04-06T13:42:35;12.87;;;9.10;;
20671;SDS011;10495;50.922;4.760;2023-04-06T13:45:01;12.77;;;9.30;;
20671;SDS011;10495;50.922;4.760;2023-04-06T13:47:27;13.63;;;9.67;;
20671;SDS011;10495;50.922;4.760;2023-04-06T13:49:53;13.53;;;9.93;;
20671;SDS011;10495;50.922;4.760;2023-04-06T13:52:20;13.30;;;9.23;;
20671;SDS011;10495;50.922;4.760;2023-04-06T13:54:45;18.63;;;9.87;;
20671;SDS011;10495;50.922;4.760;2023-04-06T13:57:11;13.43;;;10.37;;
20671;SDS011;10495;50.922;4.760;2023-04-06T13:59:37;12.77;;;9.50;;
20671;SDS011;10495;50.922;4.760;2023-04-06T14:02:05;14.57;;;10.00;;
20671;SDS011;10495;50.922;4.760;2023-04-06T14:04:32;16.23;;;10.33;;
20671;SDS011;10495;50.922;4.760;2023-04-06T14:06:58;17.87;;;10.33;;
20671;SDS011;10495;50.922;4.760;2023-04-06T14:09:25;16.27;;;10.23;;
20671;SDS011;10495;50.922;4.760;2023-04-06T14:11:51;14.60;;;10.90;;
20671;SDS011;10495;50.922;4.760;2023-04-06T14:14:18;15.20;;;11.03;;
20671;SDS011;10495;50.922;4.760;2023-04-06T14:16:44;13.73;;;10.07;;
20671;SDS011;10495;50.922;4.760;2023-04-06T14:19:10;16.20;;;11.23;;
20671;SDS011;10495;50.922;4.760;2023-04-06T14:21:40;16.53;;;10.23;;
20671;SDS011;10495;50.922;4.760;2023-04-06T14:24:06;15.47;;;9.80;;
20671;SDS011;10495;50.922;4.760;2023-04-06T14:26:33;16.57;;;11.17;;
20671;SDS011;10495;50.922;4.760;2023-04-06T14:29:00;16.27;;;9.70;;
20671;SDS011;10495;50.922;4.760;2023-04-06T14:31:26;16.67;;;11.07;;